sensor_id;sensor_type;location;lat;lon;timestamp;P1;durP1;ratioP1;P2;durP2;ratioP2
58372;SDS011;44177;43.356;27.672;2023-01-19T00:01:20;11.38;;;2.35;;
58372;SDS011;44177;43.356;27.672;2023-01-19T00:03:46;7.07;;;1.88;;
58372;SDS011;44177;43.356;27.672;2023-01-19T00:06:12;8.30;;;2.00;;
58372;SDS011;44177;43.356;27.672;2023-01-19T00:08:38;7.70;;;1.83;;
58372;SDS011;44177;43.356;27.672;2023-01-19T00:11:04;8.45;;;2.42;;
58372;SDS011;44177;43.356;27.672;2023-01-19T00:13:29;8.13;;;2.25;;
58372;SDS011;44177;43.356;27.672;2023-01-19T00:15:55;11.30;;;2.15;;
58372;SDS011;44177;43.356;27.672;2023-01-19T00:18:21;10.88;;;2.15;;
58372;SDS011;44177;43.356;27.672;2023-01-19T00:20:47;9.48;;;2.50;;
58372;SDS011;44177;43.356;27.672;2023-01-19T00:23:13;12.77;;;2.20;;
58372;SDS011;44177;43.356;27.672;2023-01-19T00:25:39;10.57;;;2.42;;
58372;SDS011;44177;43.356;27.672;2023-01-19T00:28:11;7.85;;;2.03;;
58372;SDS011;44177;43.356;27.672;2023-01-19T00:30:39;7.95;;;2.20;;
58372;SDS011;44177;43.356;27.672;2023-01-19T00:33:06;8.02;;;1.70;;
58372;SDS011;44177;43.356;27.672;2023-01-19T00:35:32;7.97;;;1.80;;
58372;SDS011;44177;43.356;27.672;2023-01-19T00:37:59;8.20;;;2.20;;
58372;SDS011;44177;43.356;27.672;2023-01-19T00:40:25;11.25;;;2.17;;
58372;SDS011;44177;43.356;27.672;2023-01-19T00:42:50;10.30;;;2.50;;
58372;SDS011;44177;43.356;27.672;2023-01-19T00:45:16;9.73;;;2.30;;
58372;SDS011;44177;43.356;27.672;2023-01-19T00:47:44;7.47;;;1.90;;
58372;SDS011;44177;43.356;27.672;2023-01-19T00:50:11;12.10;;;2.22;;
58372;SDS011;44177;43.356;27.672;2023-01-19T00:52:38;9.18;;;2.33;;
58372;SDS011;44177;43.356;27.672;2023-01-19T00:55:05;7.65;;;2.22;;
58372;SDS011;44177;43.356;27.672;2023-01-19T00:57:32;10.65;;;2.35;;
58372;SDS011;44177;43.356;27.672;2023-01-19T00:59:57;7.72;;;1.75;;
58372;SDS011;44177;43.356;27.672;2023-01-19T01:02:23;7.28;;;2.30;;
58372;SDS011;44177;43.356;27.672;2023-01-19T01:04:49;7.45;;;2.10;;
58372;SDS011;44177;43.356;27.672;2023-01-19T01:07:19;10.05;;;2.20;;
58372;SDS011;44177;43.356;27.672;2023-01-19T01:09:46;7.80;;;2.30;;
58372;SDS011;44177;43.356;27.672;2023-01-19T01:12:11;8.00;;;2.08;;
58372;SDS011;44177;43.356;27.672;2023-01-19T01:14:36;8.48;;;1.95;;
58372;SDS011;44177;43.356;27.672;2023-01-19T01:17:02;9.23;;;2.20;;
58372;SDS011;44177;43.356;27.672;2023-01-19T01:19:28;10.52;;;2.25;;
58372;SDS011;44177;43.356;27.672;2023-01-19T01:21:53;8.20;;;2.40;;
58372;SDS011;44177;43.356;27.672;2023-01-19T01:24:19;10.57;;;2.22;;
58372;SDS011;44177;43.356;27.672;2023-01-19T01:26:45;9.05;;;2.13;;
58372;SDS011;44177;43.356;27.672;2023-01-19T01:29:10;7.43;;;1.90;;
58372;SDS011;44177;43.356;27.672;2023-01-19T01:31:36;8.75;;;2.17;;
58372;SDS011;44177;43.356;27.672;2023-01-19T01:34:01;9.45;;;2.35;;
58372;SDS011;44177;43.356;27.672;2023-01-19T01:36:27;8.68;;;2.20;;
58372;SDS011;44177;43.356;27.672;2023-01-19T01:38:56;9.52;;;2.70;;
58372;SDS011;44177;43.356;27.672;2023-01-19T01:41:22;6.60;;;2.10;;
58372;SDS011;44177;43.356;27.672;2023-01-19T01:43:49;13.05;;;2.60;;
58372;SDS011;44177;43.356;27.672;2023-01-19T01:46:18;10.18;;;2.15;;
58372;SDS011;44177;43.356;27.672;2023-01-19T01:48:45;8.52;;;2.10;;
58372;SDS011;44177;43.356;27.672;2023-01-19T01:54:21;9.48;;;2.10;;
58372;SDS011;44177;43.356;27.672;2023-01-19T01:56:51;7.90;;;2.35;;
58372;SDS011;44177;43.356;27.672;2023-01-19T01:59:20;5.97;;;2.13;;
58372;SDS011;44177;43.356;27.672;2023-01-19T02:01:56;9.80;;;2.10;;
58372;SDS011;44177;43.356;27.672;2023-01-19T02:04:44;11.15;;;2.38;;
58372;SDS011;44177;43.356;27.672;2023-01-19T02:07:13;9.50;;;2.10;;
58372;SDS011;44177;43.356;27.672;2023-01-19T02:10:03;11.48;;;2.20;;
58372;SDS011;44177;43.356;27.672;2023-01-19T02:12:47;16.20;;;2.63;;
58372;SDS011;44177;43.356;27.672;2023-01-19T02:15:31;7.55;;;2.03;;
58372;SDS011;44177;43.356;27.672;2023-01-19T02:17:57;9.43;;;2.10;;
58372;SDS011;44177;43.356;27.672;2023-01-19T02:20:23;9.02;;;2.55;;
58372;SDS011;44177;43.356;27.672;2023-01-19T02:22:51;9.27;;;2.45;;
58372;SDS011;44177;43.356;27.672;2023-01-19T02:25:21;8.35;;;2.15;;
58372;SDS011;44177;43.356;27.672;2023-01-19T02:27:47;8.52;;;1.95;;
58372;SDS011;44177;43.356;27.672;2023-01-19T02:30:14;6.30;;;2.03;;
58372;SDS011;44177;43.356;27.672;2023-01-19T02:32:40;10.85;;;2.53;;
58372;SDS011;44177;43.356;27.672;2023-01-19T02:35:07;12.60;;;2.40;;
58372;SDS011;44177;43.356;27.672;2023-01-19T02:37:33;8.57;;;2.25;;
58372;SDS011;44177;43.356;27.672;2023-01-19T02:40:02;11.20;;;2.28;;
58372;SDS011;44177;43.356;27.672;2023-01-19T02:42:31;9.88;;;2.38;;
58372;SDS011;44177;43.356;27.672;2023-01-19T02:45:01;7.75;;;2.13;;
58372;SDS011;44177;43.356;27.672;2023-01-19T02:47:37;9.95;;;2.05;;
58372;SDS011;44177;43.356;27.672;2023-01-19T02:50:05;9.35;;;1.95;;
58372;SDS011;44177;43.356;27.672;2023-01-19T03:04:40;9.43;;;2.40;;
58372;SDS011;44177;43.356;27.672;2023-01-19T03:13:15;6.93;;;2.03;;
58372;SDS011;44177;43.356;27.672;2023-01-19T03:15:51;6.38;;;1.90;;
58372;SDS011;44177;43.356;27.672;2023-01-19T03:18:20;8.13;;;2.50;;
58372;SDS011;44177;43.356;27.672;2023-01-19T03:20:49;8.75;;;2.30;;
58372;SDS011;44177;43.356;27.672;2023-01-19T03:23:17;8.73;;;2.35;;
58372;SDS011;44177;43.356;27.672;2023-01-19T03:25:46;10.02;;;2.45;;
58372;SDS011;44177;43.356;27.672;2023-01-19T03:28:13;11.38;;;2.75;;
58372;SDS011;44177;43.356;27.672;2023-01-19T03:30:43;13.65;;;3.30;;
58372;SDS011;44177;43.356;27.672;2023-01-19T03:33:15;7.47;;;2.55;;
58372;SDS011;44177;43.356;27.672;2023-01-19T03:35:47;9.70;;;2.15;;
58372;SDS011;44177;43.356;27.672;2023-01-19T03:38:18;12.27;;;2.65;;
58372;SDS011;44177;43.356;27.672;2023-01-19T03:40:49;11.73;;;2.17;;
58372;SDS011;44177;43.356;27.672;2023-01-19T03:43:22;10.30;;;2.75;;
58372;SDS011;44177;43.356;27.672;2023-01-19T03:45:50;14.13;;;2.55;;
58372;SDS011;44177;43.356;27.672;2023-01-19T03:48:17;9.68;;;2.17;;
58372;SDS011;44177;43.356;27.672;2023-01-19T03:50:44;6.97;;;1.95;;
58372;SDS011;44177;43.356;27.672;2023-01-19T03:53:11;12.95;;;2.58;;
58372;SDS011;44177;43.356;27.672;2023-01-19T03:55:40;13.93;;;2.42;;
58372;SDS011;44177;43.356;27.672;2023-01-19T03:58:07;10.30;;;2.60;;
58372;SDS011;44177;43.356;27.672;2023-01-19T04:00:33;10.57;;;2.40;;
58372;SDS011;44177;43.356;27.672;2023-01-19T04:03:00;14.27;;;3.10;;
58372;SDS011;44177;43.356;27.672;2023-01-19T04:05:27;9.27;;;2.25;;
58372;SDS011;44177;43.356;27.672;2023-01-19T04:07:53;12.88;;;2.50;;
58372;SDS011;44177;43.356;27.672;2023-01-19T04:10:19;11.73;;;2.33;;
58372;SDS011;44177;43.356;27.672;2023-01-19T04:12:45;8.13;;;2.20;;
58372;SDS011;44177;43.356;27.672;2023-01-19T04:15:11;10.75;;;2.53;;
58372;SDS011;44177;43.356;27.672;2023-01-19T04:17:37;12.35;;;2.72;;
58372;SDS011;44177;43.356;27.672;2023-01-19T04:20:03;11.45;;;2.83;;
58372;SDS011;44177;43.356;27.672;2023-01-19T04:22:30;10.50;;;2.40;;
58372;SDS011;44177;43.356;27.672;2023-01-19T04:24:55;10.77;;;2.35;;
58372;SDS011;44177;43.356;27.672;2023-01-19T04:27:21;8.48;;;2.08;;
58372;SDS011;44177;43.356;27.672;2023-01-19T04:29:46;8.88;;;2.08;;
58372;SDS011;44177;43.356;27.672;2023-01-19T04:32:12;7.65;;;2.20;;
58372;SDS011;44177;43.356;27.672;2023-01-19T04:34:38;9.93;;;2.10;;
58372;SDS011;44177;43.356;27.672;2023-01-19T04:37:04;13.65;;;3.08;;
58372;SDS011;44177;43.356;27.672;2023-01-19T04:39:30;15.07;;;2.33;;
58372;SDS011;44177;43.356;27.672;2023-01-19T04:41:55;13.38;;;2.75;;
58372;SDS011;44177;43.356;27.672;2023-01-19T04:44:21;7.15;;;2.20;;
58372;SDS011;44177;43.356;27.672;2023-01-19T04:46:47;8.40;;;2.58;;
58372;SDS011;44177;43.356;27.672;2023-01-19T04:49:15;16.38;;;2.85;;
58372;SDS011;44177;43.356;27.672;2023-01-19T04:51:40;11.48;;;2.45;;
58372;SDS011;44177;43.356;27.672;2023-01-19T04:54:06;11.95;;;2.40;;
58372;SDS011;44177;43.356;27.672;2023-01-19T04:56:33;13.05;;;2.55;;
58372;SDS011;44177;43.356;27.672;2023-01-19T04:58:58;7.95;;;2.33;;
58372;SDS011;44177;43.356;27.672;2023-01-19T05:01:24;15.68;;;2.58;;
58372;SDS011;44177;43.356;27.672;2023-01-19T05:03:49;11.75;;;2.33;;
58372;SDS011;44177;43.356;27.672;2023-01-19T05:06:15;13.50;;;2.40;;
58372;SDS011;44177;43.356;27.672;2023-01-19T05:08:40;10.50;;;2.83;;
58372;SDS011;44177;43.356;27.672;2023-01-19T05:11:06;11.75;;;2.30;;
58372;SDS011;44177;43.356;27.672;2023-01-19T05:13:31;9.52;;;2.17;;
58372;SDS011;44177;43.356;27.672;2023-01-19T05:15:57;11.23;;;2.42;;
58372;SDS011;44177;43.356;27.672;2023-01-19T05:18:23;10.30;;;2.65;;
58372;SDS011;44177;43.356;27.672;2023-01-19T05:20:48;17.63;;;3.58;;
58372;SDS011;44177;43.356;27.672;2023-01-19T05:23:13;11.35;;;2.17;;
58372;SDS011;44177;43.356;27.672;2023-01-19T05:25:39;10.93;;;2.55;;
58372;SDS011;44177;43.356;27.672;2023-01-19T05:28:06;8.88;;;2.80;;
58372;SDS011;44177;43.356;27.672;2023-01-19T05:30:31;17.85;;;3.38;;
58372;SDS011;44177;43.356;27.672;2023-01-19T05:32:57;8.13;;;2.30;;
58372;SDS011;44177;43.356;27.672;2023-01-19T05:35:22;15.65;;;2.63;;
58372;SDS011;44177;43.356;27.672;2023-01-19T05:37:48;16.08;;;3.00;;
58372;SDS011;44177;43.356;27.672;2023-01-19T05:40:13;11.52;;;2.78;;
58372;SDS011;44177;43.356;27.672;2023-01-19T05:42:39;11.10;;;2.58;;
58372;SDS011;44177;43.356;27.672;2023-01-19T05:45:04;9.65;;;2.72;;
58372;SDS011;44177;43.356;27.672;2023-01-19T05:47:30;11.40;;;3.00;;
58372;SDS011;44177;43.356;27.672;2023-01-19T05:49:56;11.30;;;2.33;;
58372;SDS011;44177;43.356;27.672;2023-01-19T05:52:22;11.63;;;2.80;;
58372;SDS011;44177;43.356;27.672;2023-01-19T05:54:49;11.43;;;2.58;;
58372;SDS011;44177;43.356;27.672;2023-01-19T05:57:15;11.02;;;2.40;;
58372;SDS011;44177;43.356;27.672;2023-01-19T05:59:41;9.65;;;2.25;;
58372;SDS011;44177;43.356;27.672;2023-01-19T06:02:06;12.30;;;2.70;;
58372;SDS011;44177;43.356;27.672;2023-01-19T06:04:32;15.50;;;2.70;;
58372;SDS011;44177;43.356;27.672;2023-01-19T06:06:58;11.13;;;2.20;;
58372;SDS011;44177;43.356;27.672;2023-01-19T06:09:23;10.00;;;2.50;;
58372;SDS011;44177;43.356;27.672;2023-01-19T06:11:49;18.80;;;3.38;;
58372;SDS011;44177;43.356;27.672;2023-01-19T06:14:15;9.95;;;2.45;;
58372;SDS011;44177;43.356;27.672;2023-01-19T06:16:40;7.55;;;2.15;;
58372;SDS011;44177;43.356;27.672;2023-01-19T06:19:05;15.95;;;3.55;;
58372;SDS011;44177;43.356;27.672;2023-01-19T06:21:32;10.15;;;2.60;;
58372;SDS011;44177;43.356;27.672;2023-01-19T06:23:58;10.52;;;2.53;;
58372;SDS011;44177;43.356;27.672;2023-01-19T06:26:23;11.05;;;2.67;;
58372;SDS011;44177;43.356;27.672;2023-01-19T06:28:50;13.05;;;2.55;;
58372;SDS011;44177;43.356;27.672;2023-01-19T06:31:16;11.68;;;2.60;;
58372;SDS011;44177;43.356;27.672;2023-01-19T06:33:42;11.57;;;2.58;;
58372;SDS011;44177;43.356;27.672;2023-01-19T06:36:07;10.48;;;2.85;;
58372;SDS011;44177;43.356;27.672;2023-01-19T06:38:33;10.38;;;2.72;;
58372;SDS011;44177;43.356;27.672;2023-01-19T06:40:58;16.45;;;3.28;;
58372;SDS011;44177;43.356;27.672;2023-01-19T06:43:26;12.18;;;2.83;;
58372;SDS011;44177;43.356;27.672;2023-01-19T06:45:52;10.65;;;2.40;;
58372;SDS011;44177;43.356;27.672;2023-01-19T06:48:18;9.60;;;2.55;;
58372;SDS011;44177;43.356;27.672;2023-01-19T06:50:44;12.43;;;2.67;;
58372;SDS011;44177;43.356;27.672;2023-01-19T06:53:11;17.40;;;2.85;;
58372;SDS011;44177;43.356;27.672;2023-01-19T06:55:36;10.13;;;3.00;;
58372;SDS011;44177;43.356;27.672;2023-01-19T06:58:03;12.77;;;3.00;;
58372;SDS011;44177;43.356;27.672;2023-01-19T07:00:29;13.15;;;3.15;;
58372;SDS011;44177;43.356;27.672;2023-01-19T07:02:55;11.88;;;2.78;;
58372;SDS011;44177;43.356;27.672;2023-01-19T07:05:20;13.75;;;2.92;;
58372;SDS011;44177;43.356;27.672;2023-01-19T07:07:52;12.20;;;2.92;;
58372;SDS011;44177;43.356;27.672;2023-01-19T07:10:19;16.15;;;3.13;;
58372;SDS011;44177;43.356;27.672;2023-01-19T07:12:45;17.33;;;3.08;;
58372;SDS011;44177;43.356;27.672;2023-01-19T07:15:11;12.95;;;3.90;;
58372;SDS011;44177;43.356;27.672;2023-01-19T07:17:38;14.25;;;2.80;;
58372;SDS011;44177;43.356;27.672;2023-01-19T07:20:06;13.63;;;3.55;;
58372;SDS011;44177;43.356;27.672;2023-01-19T07:22:37;14.05;;;2.80;;
58372;SDS011;44177;43.356;27.672;2023-01-19T07:25:03;15.40;;;3.00;;
58372;SDS011;44177;43.356;27.672;2023-01-19T07:27:29;15.82;;;3.38;;
58372;SDS011;44177;43.356;27.672;2023-01-19T07:29:54;10.35;;;2.83;;
58372;SDS011;44177;43.356;27.672;2023-01-19T07:32:20;14.68;;;3.67;;
58372;SDS011;44177;43.356;27.672;2023-01-19T07:34:45;15.82;;;2.92;;
58372;SDS011;44177;43.356;27.672;2023-01-19T07:37:11;11.40;;;3.10;;
58372;SDS011;44177;43.356;27.672;2023-01-19T07:39:37;14.48;;;3.08;;
58372;SDS011;44177;43.356;27.672;2023-01-19T07:42:02;13.07;;;2.85;;
58372;SDS011;44177;43.356;27.672;2023-01-19T07:44:28;15.57;;;2.55;;
58372;SDS011;44177;43.356;27.672;2023-01-19T07:46:53;12.15;;;3.00;;
58372;SDS011;44177;43.356;27.672;2023-01-19T07:49:19;13.38;;;2.95;;
58372;SDS011;44177;43.356;27.672;2023-01-19T07:51:45;12.10;;;3.05;;
58372;SDS011;44177;43.356;27.672;2023-01-19T07:54:10;9.52;;;2.78;;
58372;SDS011;44177;43.356;27.672;2023-01-19T07:56:36;15.70;;;3.13;;
58372;SDS011;44177;43.356;27.672;2023-01-19T07:59:02;16.25;;;3.20;;
58372;SDS011;44177;43.356;27.672;2023-01-19T08:01:27;11.35;;;2.50;;
58372;SDS011;44177;43.356;27.672;2023-01-19T08:03:53;11.65;;;2.30;;
58372;SDS011;44177;43.356;27.672;2023-01-19T08:06:23;13.00;;;2.95;;
58372;SDS011;44177;43.356;27.672;2023-01-19T08:08:53;10.75;;;2.90;;
58372;SDS011;44177;43.356;27.672;2023-01-19T08:11:19;11.25;;;2.67;;
58372;SDS011;44177;43.356;27.672;2023-01-19T08:13:44;14.35;;;2.88;;
58372;SDS011;44177;43.356;27.672;2023-01-19T08:16:10;12.48;;;2.60;;
58372;SDS011;44177;43.356;27.672;2023-01-19T08:18:35;14.52;;;3.13;;
58372;SDS011;44177;43.356;27.672;2023-01-19T08:21:01;16.80;;;2.90;;
58372;SDS011;44177;43.356;27.672;2023-01-19T08:23:26;11.65;;;2.55;;
58372;SDS011;44177;43.356;27.672;2023-01-19T08:25:52;12.35;;;2.80;;
58372;SDS011;44177;43.356;27.672;2023-01-19T08:28:17;19.95;;;2.97;;
58372;SDS011;44177;43.356;27.672;2023-01-19T08:30:43;11.20;;;2.50;;
58372;SDS011;44177;43.356;27.672;2023-01-19T08:33:09;15.93;;;3.33;;
58372;SDS011;44177;43.356;27.672;2023-01-19T08:35:39;10.75;;;2.85;;
58372;SDS011;44177;43.356;27.672;2023-01-19T08:38:06;9.60;;;2.47;;
58372;SDS011;44177;43.356;27.672;2023-01-19T08:40:34;10.07;;;2.78;;
58372;SDS011;44177;43.356;27.672;2023-01-19T08:43:05;8.43;;;2.40;;
58372;SDS011;44177;43.356;27.672;2023-01-19T08:45:33;9.35;;;2.47;;
58372;SDS011;44177;43.356;27.672;2023-01-19T08:48:00;12.77;;;2.67;;
58372;SDS011;44177;43.356;27.672;2023-01-19T08:50:29;7.55;;;2.70;;
58372;SDS011;44177;43.356;27.672;2023-01-19T08:52:56;11.25;;;2.40;;
58372;SDS011;44177;43.356;27.672;2023-01-19T08:55:23;7.88;;;2.05;;
58372;SDS011;44177;43.356;27.672;2023-01-19T08:57:50;8.02;;;2.10;;
58372;SDS011;44177;43.356;27.672;2023-01-19T09:00:17;9.23;;;2.28;;
58372;SDS011;44177;43.356;27.672;2023-01-19T09:02:43;8.48;;;2.00;;
58372;SDS011;44177;43.356;27.672;2023-01-19T09:05:08;8.18;;;2.28;;
58372;SDS011;44177;43.356;27.672;2023-01-19T09:07:34;8.45;;;2.38;;
58372;SDS011;44177;43.356;27.672;2023-01-19T09:09:59;8.93;;;2.03;;
58372;SDS011;44177;43.356;27.672;2023-01-19T09:12:24;8.13;;;2.22;;
58372;SDS011;44177;43.356;27.672;2023-01-19T09:14:50;8.82;;;2.50;;
58372;SDS011;44177;43.356;27.672;2023-01-19T09:17:15;8.88;;;2.15;;
58372;SDS011;44177;43.356;27.672;2023-01-19T09:19:42;12.75;;;2.40;;
58372;SDS011;44177;43.356;27.672;2023-01-19T09:22:07;8.18;;;2.33;;
58372;SDS011;44177;43.356;27.672;2023-01-19T09:24:33;8.52;;;2.17;;
58372;SDS011;44177;43.356;27.672;2023-01-19T09:26:59;10.52;;;2.20;;
58372;SDS011;44177;43.356;27.672;2023-01-19T09:29:25;9.48;;;2.85;;
58372;SDS011;44177;43.356;27.672;2023-01-19T09:31:50;7.60;;;2.38;;
58372;SDS011;44177;43.356;27.672;2023-01-19T09:34:16;9.80;;;2.10;;
58372;SDS011;44177;43.356;27.672;2023-01-19T09:36:41;10.95;;;2.33;;
58372;SDS011;44177;43.356;27.672;2023-01-19T09:39:07;9.75;;;2.15;;
58372;SDS011;44177;43.356;27.672;2023-01-19T09:41:34;11.73;;;2.40;;
58372;SDS011;44177;43.356;27.672;2023-01-19T09:44:00;17.25;;;2.75;;
58372;SDS011;44177;43.356;27.672;2023-01-19T09:46:32;12.85;;;2.55;;
58372;SDS011;44177;43.356;27.672;2023-01-19T09:49:01;10.40;;;2.45;;
58372;SDS011;44177;43.356;27.672;2023-01-19T09:51:35;16.80;;;3.20;;
58372;SDS011;44177;43.356;27.672;2023-01-19T09:56:52;13.90;;;2.78;;
58372;SDS011;44177;43.356;27.672;2023-01-19T09:59:19;18.85;;;3.95;;
58372;SDS011;44177;43.356;27.672;2023-01-19T10:04:46;12.90;;;2.92;;
58372;SDS011;44177;43.356;27.672;2023-01-19T10:10:15;11.48;;;2.85;;
58372;SDS011;44177;43.356;27.672;2023-01-19T10:15:36;12.50;;;2.40;;
58372;SDS011;44177;43.356;27.672;2023-01-19T10:18:23;15.45;;;2.97;;
58372;SDS011;44177;43.356;27.672;2023-01-19T10:26:07;11.88;;;2.45;;
58372;SDS011;44177;43.356;27.672;2023-01-19T10:28:37;12.30;;;2.55;;
58372;SDS011;44177;43.356;27.672;2023-01-19T10:31:04;9.93;;;2.83;;
58372;SDS011;44177;43.356;27.672;2023-01-19T10:33:31;12.13;;;2.40;;
58372;SDS011;44177;43.356;27.672;2023-01-19T10:36:01;7.88;;;2.28;;
58372;SDS011;44177;43.356;27.672;2023-01-19T10:38:28;14.43;;;3.03;;
58372;SDS011;44177;43.356;27.672;2023-01-19T10:40:57;9.75;;;2.40;;
58372;SDS011;44177;43.356;27.672;2023-01-19T10:43:42;15.40;;;2.60;;
58372;SDS011;44177;43.356;27.672;2023-01-19T10:49:27;10.73;;;2.38;;
58372;SDS011;44177;43.356;27.672;2023-01-19T10:51:55;11.25;;;2.50;;
58372;SDS011;44177;43.356;27.672;2023-01-19T10:54:22;11.82;;;2.55;;
58372;SDS011;44177;43.356;27.672;2023-01-19T10:56:53;8.40;;;2.28;;
58372;SDS011;44177;43.356;27.672;2023-01-19T10:59:28;10.30;;;2.25;;
58372;SDS011;44177;43.356;27.672;2023-01-19T11:02:11;9.27;;;2.40;;
58372;SDS011;44177;43.356;27.672;2023-01-19T11:04:47;9.60;;;2.53;;
58372;SDS011;44177;43.356;27.672;2023-01-19T11:07:17;13.30;;;2.65;;
58372;SDS011;44177;43.356;27.672;2023-01-19T11:09:46;11.35;;;2.60;;
58372;SDS011;44177;43.356;27.672;2023-01-19T11:12:14;13.45;;;2.67;;
58372;SDS011;44177;43.356;27.672;2023-01-19T11:14:42;9.05;;;3.03;;
58372;SDS011;44177;43.356;27.672;2023-01-19T11:17:14;12.48;;;2.53;;
58372;SDS011;44177;43.356;27.672;2023-01-19T11:19:54;11.65;;;2.28;;
58372;SDS011;44177;43.356;27.672;2023-01-19T11:22:30;12.45;;;2.47;;
58372;SDS011;44177;43.356;27.672;2023-01-19T11:25:00;12.03;;;2.57;;
58372;SDS011;44177;43.356;27.672;2023-01-19T11:27:28;7.43;;;2.30;;
58372;SDS011;44177;43.356;27.672;2023-01-19T11:30:01;10.98;;;2.72;;
58372;SDS011;44177;43.356;27.672;2023-01-19T11:32:33;12.02;;;2.40;;
58372;SDS011;44177;43.356;27.672;2023-01-19T11:35:01;11.50;;;2.28;;
58372;SDS011;44177;43.356;27.672;2023-01-19T11:37:45;9.98;;;2.25;;
58372;SDS011;44177;43.356;27.672;2023-01-19T11:40:11;7.03;;;1.95;;
58372;SDS011;44177;43.356;27.672;2023-01-19T11:42:36;10.52;;;2.33;;
58372;SDS011;44177;43.356;27.672;2023-01-19T11:45:20;11.48;;;2.42;;
58372;SDS011;44177;43.356;27.672;2023-01-19T11:47:47;13.88;;;2.20;;
58372;SDS011;44177;43.356;27.672;2023-01-19T11:53:05;9.80;;;2.08;;
58372;SDS011;44177;43.356;27.672;2023-01-19T11:55:40;11.18;;;2.03;;
58372;SDS011;44177;43.356;27.672;2023-01-19T11:58:14;6.65;;;2.15;;
58372;SDS011;44177;43.356;27.672;2023-01-19T12:00:51;8.13;;;1.80;;
58372;SDS011;44177;43.356;27.672;2023-01-19T12:03:39;9.88;;;2.13;;
58372;SDS011;44177;43.356;27.672;2023-01-19T12:08:34;9.15;;;2.25;;
58372;SDS011;44177;43.356;27.672;2023-01-19T12:11:03;12.90;;;2.50;;
58372;SDS011;44177;43.356;27.672;2023-01-19T12:13:32;8.35;;;2.28;;
58372;SDS011;44177;43.356;27.672;2023-01-19T12:16:07;7.88;;;2.15;;
58372;SDS011;44177;43.356;27.672;2023-01-19T12:18:38;7.93;;;1.75;;
58372;SDS011;44177;43.356;27.672;2023-01-19T12:21:07;6.28;;;2.25;;
58372;SDS011;44177;43.356;27.672;2023-01-19T12:23:44;8.68;;;2.00;;
58372;SDS011;44177;43.356;27.672;2023-01-19T12:28:51;12.05;;;2.42;;
58372;SDS011;44177;43.356;27.672;2023-01-19T12:31:17;6.63;;;1.77;;
58372;SDS011;44177;43.356;27.672;2023-01-19T12:33:45;8.38;;;2.42;;
58372;SDS011;44177;43.356;27.672;2023-01-19T12:39:01;7.22;;;1.75;;
58372;SDS011;44177;43.356;27.672;2023-01-19T12:41:29;5.60;;;1.58;;
58372;SDS011;44177;43.356;27.672;2023-01-19T12:51:45;9.90;;;2.28;;
58372;SDS011;44177;43.356;27.672;2023-01-19T12:54:19;8.82;;;1.98;;
58372;SDS011;44177;43.356;27.672;2023-01-19T12:56:59;7.20;;;2.20;;
58372;SDS011;44177;43.356;27.672;2023-01-19T12:59:29;8.13;;;1.80;;
58372;SDS011;44177;43.356;27.672;2023-01-19T13:05:12;8.13;;;2.05;;
58372;SDS011;44177;43.356;27.672;2023-01-19T13:13:20;5.05;;;1.30;;
58372;SDS011;44177;43.356;27.672;2023-01-19T13:15:46;6.30;;;1.73;;
58372;SDS011;44177;43.356;27.672;2023-01-19T13:18:16;4.18;;;1.40;;
58372;SDS011;44177;43.356;27.672;2023-01-19T13:20:57;9.50;;;1.90;;
58372;SDS011;44177;43.356;27.672;2023-01-19T13:23:27;9.30;;;1.90;;
58372;SDS011;44177;43.356;27.672;2023-01-19T13:26:20;7.63;;;2.20;;
58372;SDS011;44177;43.356;27.672;2023-01-19T13:28:51;8.27;;;1.65;;
58372;SDS011;44177;43.356;27.672;2023-01-19T13:31:19;7.05;;;1.60;;
58372;SDS011;44177;43.356;27.672;2023-01-19T13:36:20;7.00;;;1.83;;
58372;SDS011;44177;43.356;27.672;2023-01-19T13:39:10;5.85;;;1.70;;
58372;SDS011;44177;43.356;27.672;2023-01-19T13:41:40;5.50;;;1.70;;
58372;SDS011;44177;43.356;27.672;2023-01-19T13:44:17;4.65;;;1.48;;
58372;SDS011;44177;43.356;27.672;2023-01-19T13:46:43;4.93;;;1.50;;
58372;SDS011;44177;43.356;27.672;2023-01-19T13:49:13;6.68;;;1.42;;
58372;SDS011;44177;43.356;27.672;2023-01-19T13:52:12;5.28;;;1.63;;
58372;SDS011;44177;43.356;27.672;2023-01-19T14:02:28;5.25;;;1.33;;
58372;SDS011;44177;43.356;27.672;2023-01-19T14:04:54;5.18;;;1.38;;
58372;SDS011;44177;43.356;27.672;2023-01-19T14:07:21;5.18;;;1.58;;
58372;SDS011;44177;43.356;27.672;2023-01-19T14:10:05;5.80;;;1.77;;
58372;SDS011;44177;43.356;27.672;2023-01-19T14:12:36;4.03;;;1.42;;
58372;SDS011;44177;43.356;27.672;2023-01-19T14:15:01;5.70;;;1.50;;
58372;SDS011;44177;43.356;27.672;2023-01-19T14:17:29;5.90;;;1.70;;
58372;SDS011;44177;43.356;27.672;2023-01-19T14:19:56;4.95;;;1.40;;
58372;SDS011;44177;43.356;27.672;2023-01-19T14:22:38;5.25;;;1.42;;
58372;SDS011;44177;43.356;27.672;2023-01-19T14:33:32;6.47;;;1.40;;
58372;SDS011;44177;43.356;27.672;2023-01-19T14:38:54;3.95;;;1.65;;
58372;SDS011;44177;43.356;27.672;2023-01-19T14:41:23;5.07;;;1.48;;
58372;SDS011;44177;43.356;27.672;2023-01-19T14:44:08;12.57;;;1.90;;
58372;SDS011;44177;43.356;27.672;2023-01-19T14:46:36;9.18;;;2.10;;
58372;SDS011;44177;43.356;27.672;2023-01-19T14:49:03;6.75;;;2.58;;
58372;SDS011;44177;43.356;27.672;2023-01-19T14:51:30;8.32;;;1.70;;
58372;SDS011;44177;43.356;27.672;2023-01-19T14:53:56;7.15;;;1.83;;
58372;SDS011;44177;43.356;27.672;2023-01-19T14:56:28;5.70;;;1.80;;
58372;SDS011;44177;43.356;27.672;2023-01-19T14:58:55;5.68;;;1.90;;
58372;SDS011;44177;43.356;27.672;2023-01-19T15:01:23;5.07;;;1.80;;
58372;SDS011;44177;43.356;27.672;2023-01-19T15:03:52;5.97;;;1.88;;
58372;SDS011;44177;43.356;27.672;2023-01-19T15:06:20;6.40;;;1.98;;
58372;SDS011;44177;43.356;27.672;2023-01-19T15:08:47;6.63;;;2.53;;
58372;SDS011;44177;43.356;27.672;2023-01-19T15:11:20;4.97;;;2.30;;
58372;SDS011;44177;43.356;27.672;2023-01-19T15:13:51;5.30;;;2.03;;
58372;SDS011;44177;43.356;27.672;2023-01-19T15:16:18;5.75;;;2.00;;
58372;SDS011;44177;43.356;27.672;2023-01-19T15:18:44;3.13;;;1.67;;
58372;SDS011;44177;43.356;27.672;2023-01-19T15:21:19;6.75;;;2.10;;
58372;SDS011;44177;43.356;27.672;2023-01-19T15:23:47;5.25;;;1.95;;
58372;SDS011;44177;43.356;27.672;2023-01-19T15:26:17;6.18;;;2.22;;
58372;SDS011;44177;43.356;27.672;2023-01-19T15:28:45;10.30;;;2.13;;
58372;SDS011;44177;43.356;27.672;2023-01-19T15:31:14;5.25;;;1.70;;
58372;SDS011;44177;43.356;27.672;2023-01-19T15:33:41;4.05;;;1.70;;
58372;SDS011;44177;43.356;27.672;2023-01-19T15:36:16;5.43;;;1.90;;
58372;SDS011;44177;43.356;27.672;2023-01-19T15:38:43;5.45;;;1.77;;
58372;SDS011;44177;43.356;27.672;2023-01-19T15:41:17;5.63;;;1.60;;
58372;SDS011;44177;43.356;27.672;2023-01-19T15:43:47;6.25;;;1.90;;
58372;SDS011;44177;43.356;27.672;2023-01-19T15:46:13;4.68;;;1.60;;
58372;SDS011;44177;43.356;27.672;2023-01-19T15:48:40;6.63;;;1.80;;
58372;SDS011;44177;43.356;27.672;2023-01-19T15:51:13;6.40;;;1.60;;
58372;SDS011;44177;43.356;27.672;2023-01-19T15:53:39;5.63;;;1.65;;
58372;SDS011;44177;43.356;27.672;2023-01-19T15:56:05;4.53;;;1.52;;
58372;SDS011;44177;43.356;27.672;2023-01-19T15:58:35;5.18;;;1.50;;
58372;SDS011;44177;43.356;27.672;2023-01-19T16:01:01;5.88;;;1.52;;
58372;SDS011;44177;43.356;27.672;2023-01-19T16:03:26;5.60;;;1.60;;
58372;SDS011;44177;43.356;27.672;2023-01-19T16:05:52;6.85;;;1.35;;